Empire, Alabama
Current Conditions -  °F | °C
As of 5:55 PM on Friday 31 Oct 2014 (Local Time) from KJFX Reporting Station
Broken Clouds Broken Clouds  
Wind Chill: 54°   Ceiling: 3400
Heat Index: 54°   Visibility: 10mi
Dew Point: 45°   Wind: 12mph
Humidity: 72%   Direction: 320°NW
Pressure: 30.06"   Gusts: 20mph
Location:  33.81°N, 87.01°W
Report Text: KJFX 312255Z AUTO 32010G17KT 10SM SCT029 BKN034 BKN042 12/07 A3006 RMK A02 P-128
Loading
Personal Weather Stations






























Interactive Weather Map
Tropical Storm Tracking
New forecast layout! Learn more

10-Day Weather Forecast

Advertisements
Track Severe Weather on mobile